Time;durP1;ratioP1;P1;durP2;ratioP2;P2;SDS_P1;SDS_P2;PMS_P1;PMS_P2;Temp;Humidity;BMP_temperature;BMP_pressure;BME280_temperature;BME280_humidity;BME280_pressure;Samples;Min_cycle;Max_cycle;Signal;HPM_P1;HPM_P2
2024/01/06 00:01:00;;;;;;;5.07;2.10;;;3.20;99.90;;;;;;5066861;28;20044;-73
2024/01/06 00:03:26;;;;;;;4.45;2.08;;;3.10;99.90;;;;;;5045422;28;20051;-73
2024/01/06 00:05:52;;;;;;;4.65;1.77;;;3.10;99.90;;;;;;5065398;28;20127;-73
2024/01/06 00:08:17;;;;;;;4.45;2.10;;;3.10;99.90;;;;;;5065995;28;20452;-73
2024/01/06 00:10:43;;;;;;;3.83;1.70;;;3.10;99.90;;;;;;5062677;28;20039;-73
2024/01/06 00:13:10;;;;;;;5.18;1.70;;;3.10;99.90;;;;;;5063841;28;20039;-73
2024/01/06 00:15:36;;;;;;;3.10;1.73;;;3.10;99.90;;;;;;5049007;28;20032;-73
2024/01/06 00:18:02;;;;;;;4.05;2.80;;;3.00;99.90;;;;;;5050875;28;20036;-73
2024/01/06 00:20:28;;;;;;;6.63;2.53;;;3.10;99.90;;;;;;5069154;28;20032;-73
2024/01/06 00:22:53;;;;;;;4.88;2.42;;;3.00;99.90;;;;;;5061854;28;20102;-73
2024/01/06 00:25:19;;;;;;;4.38;2.35;;;3.00;99.90;;;;;;5048931;28;20032;-73
2024/01/06 00:27:44;;;;;;;3.58;2.15;;;3.00;99.90;;;;;;5061211;28;20615;-73
2024/01/06 00:30:10;;;;;;;4.95;2.25;;;3.00;99.90;;;;;;5045687;28;20047;-73
2024/01/06 00:32:36;;;;;;;4.22;1.65;;;3.00;99.90;;;;;;5065258;28;20028;-73
2024/01/06 00:35:02;;;;;;;3.45;1.60;;;3.00;99.90;;;;;;5066842;28;20101;-73
2024/01/06 00:37:28;;;;;;;5.65;2.47;;;3.00;99.90;;;;;;5048680;28;20038;-73
2024/01/06 00:39:53;;;;;;;6.35;3.08;;;2.90;99.90;;;;;;5063277;28;20512;-73
2024/01/06 00:42:19;;;;;;;5.95;2.15;;;3.00;99.90;;;;;;5056206;28;20040;-73
2024/01/06 00:44:45;;;;;;;5.78;2.25;;;3.00;99.90;;;;;;5060068;28;20107;-73
2024/01/06 00:47:11;;;;;;;3.58;1.98;;;2.90;99.90;;;;;;5072930;28;20028;-73
2024/01/06 00:49:36;;;;;;;3.75;1.90;;;3.00;99.90;;;;;;5061000;28;20511;-73
2024/01/06 00:52:02;;;;;;;4.40;1.63;;;3.00;99.90;;;;;;5049253;28;20036;-73
2024/01/06 00:54:28;;;;;;;5.70;2.38;;;2.90;99.90;;;;;;5052753;28;20032;-73
2024/01/06 00:56:54;;;;;;;4.45;1.95;;;3.00;99.90;;;;;;5068424;28;20858;-73
2024/01/06 00:59:20;;;;;;;4.57;2.13;;;2.90;99.90;;;;;;5068230;28;20119;-73
2024/01/06 01:01:45;;;;;;;4.53;1.90;;;3.00;99.90;;;;;;5064866;28;20038;-73
2024/01/06 01:04:11;;;;;;;5.43;2.00;;;2.90;99.90;;;;;;5071418;28;20408;-73
2024/01/06 01:06:37;;;;;;;5.25;2.22;;;2.90;99.90;;;;;;5052936;28;20153;-73
2024/01/06 01:09:04;;;;;;;4.13;2.17;;;3.00;99.90;;;;;;5066547;28;20630;-73
2024/01/06 01:11:30;;;;;;;5.22;2.17;;;3.00;99.90;;;;;;5068717;28;20051;-73
2024/01/06 01:13:56;;;;;;;2.95;1.33;;;2.90;99.90;;;;;;5067011;28;20119;-73
2024/01/06 01:16:22;;;;;;;4.75;1.58;;;2.90;99.90;;;;;;5071076;28;20111;-73
2024/01/06 01:18:47;;;;;;;4.60;2.53;;;2.90;99.90;;;;;;5050424;28;20044;-73
2024/01/06 01:21:14;;;;;;;4.45;1.90;;;2.90;99.90;;;;;;5054061;28;20036;-73
2024/01/06 01:23:39;;;;;;;4.13;2.17;;;2.80;99.90;;;;;;5068753;28;20038;-73
2024/01/06 01:26:05;;;;;;;6.55;2.78;;;2.80;99.90;;;;;;5065818;28;20059;-73
2024/01/06 01:28:30;;;;;;;4.63;2.60;;;2.80;99.90;;;;;;5070240;28;20528;-73
2024/01/06 01:30:56;;;;;;;5.60;2.67;;;2.70;99.90;;;;;;5051853;28;20032;-73
2024/01/06 01:33:22;;;;;;;4.05;2.15;;;2.70;99.90;;;;;;5068150;28;20035;-73
2024/01/06 01:35:47;;;;;;;7.30;3.17;;;2.70;99.90;;;;;;5054819;28;20029;-73
2024/01/06 01:38:13;;;;;;;6.18;3.03;;;2.70;99.90;;;;;;5063795;28;20036;-73
2024/01/06 01:40:39;;;;;;;6.97;2.58;;;2.70;99.90;;;;;;5065767;28;20216;-73
2024/01/06 01:43:04;;;;;;;4.13;2.28;;;2.70;99.90;;;;;;5066424;28;20046;-73
2024/01/06 01:45:30;;;;;;;6.40;3.15;;;2.70;99.90;;;;;;5068145;28;20127;-73
2024/01/06 01:47:55;;;;;;;5.65;2.83;;;2.70;99.90;;;;;;5050224;28;20040;-73
2024/01/06 01:50:22;;;;;;;3.83;2.47;;;2.70;99.90;;;;;;5070012;28;20035;-73
2024/01/06 01:52:48;;;;;;;4.28;1.90;;;2.70;99.90;;;;;;5051325;28;20051;-73
2024/01/06 01:55:14;;;;;;;6.90;3.03;;;2.70;99.90;;;;;;5065122;28;20667;-73
2024/01/06 01:57:40;;;;;;;5.43;2.13;;;2.70;99.90;;;;;;5066161;28;20030;-73
2024/01/06 02:00:07;;;;;;;4.43;2.35;;;2.70;99.90;;;;;;5052018;28;20391;-73
2024/01/06 02:02:32;;;;;;;4.85;3.00;;;2.70;99.90;;;;;;5064259;28;20109;-73
2024/01/06 02:04:59;;;;;;;7.38;2.28;;;2.70;99.90;;;;;;5069339;28;20484;-73
2024/01/06 02:07:25;;;;;;;4.30;2.25;;;2.70;99.90;;;;;;5069537;28;20114;-73
2024/01/06 02:09:50;;;;;;;2.45;1.40;;;2.70;99.90;;;;;;5066046;28;20060;-73
2024/01/06 02:12:16;;;;;;;3.63;1.55;;;2.70;99.90;;;;;;5066471;28;20215;-73
2024/01/06 02:14:43;;;;;;;3.97;2.03;;;2.60;99.90;;;;;;5065111;28;20032;-73
2024/01/06 02:17:08;;;;;;;4.40;1.85;;;2.60;99.90;;;;;;5043817;28;20047;-73
2024/01/06 02:19:35;;;;;;;7.45;2.50;;;2.60;99.90;;;;;;5069527;28;20044;-73
2024/01/06 02:22:00;;;;;;;3.72;1.85;;;2.60;99.90;;;;;;5064319;28;20079;-73
2024/01/06 02:24:26;;;;;;;4.93;2.15;;;2.60;99.90;;;;;;5065738;28;20128;-73
2024/01/06 02:26:52;;;;;;;4.00;2.15;;;2.60;99.90;;;;;;5048684;28;20040;-73
2024/01/06 02:29:17;;;;;;;3.92;1.20;;;2.60;99.90;;;;;;5066086;28;20048;-73
2024/01/06 02:31:43;;;;;;;4.10;2.08;;;2.60;99.90;;;;;;5066020;28;20028;-73
2024/01/06 02:34:09;;;;;;;4.57;1.98;;;2.60;99.90;;;;;;5050502;28;20043;-73
2024/01/06 02:36:35;;;;;;;5.65;1.83;;;2.60;99.90;;;;;;5071191;28;20032;-73
2024/01/06 02:39:00;;;;;;;4.45;1.60;;;2.60;99.90;;;;;;5053365;28;20036;-73
2024/01/06 02:41:26;;;;;;;4.35;2.45;;;2.60;99.90;;;;;;5062319;28;20558;-73
2024/01/06 02:43:54;;;;;;;3.17;1.83;;;2.60;99.90;;;;;;5076195;28;20043;-73
2024/01/06 02:46:19;;;;;;;3.53;1.48;;;2.60;99.90;;;;;;5078670;28;20036;-73
2024/01/06 02:48:45;;;;;;;6.32;1.98;;;2.60;99.90;;;;;;5074280;28;20538;-73
2024/01/06 02:51:12;;;;;;;4.03;1.90;;;2.60;99.90;;;;;;5055527;28;20039;-73
2024/01/06 02:53:38;;;;;;;4.80;2.13;;;2.60;99.90;;;;;;5062935;28;20044;-73
2024/01/06 02:56:04;;;;;;;5.95;2.28;;;2.60;99.90;;;;;;5053540;28;20363;-73
2024/01/06 02:58:30;;;;;;;4.65;2.60;;;2.60;99.90;;;;;;5065913;28;20032;-73
2024/01/06 03:00:55;;;;;;;5.95;2.47;;;2.50;99.90;;;;;;5063085;28;20529;-73
2024/01/06 03:03:21;;;;;;;5.85;2.53;;;2.50;99.90;;;;;;5054896;28;20042;-73
2024/01/06 03:05:48;;;;;;;9.40;2.80;;;2.50;99.90;;;;;;5070350;28;20139;-73
2024/01/06 03:08:16;;;;;;;6.60;2.58;;;2.50;99.90;;;;;;5048326;28;20185;-73
2024/01/06 03:10:41;;;;;;;4.57;2.17;;;2.50;99.90;;;;;;5064249;28;20040;-73
2024/01/06 03:13:07;;;;;;;5.68;2.42;;;2.50;99.90;;;;;;5060454;28;20042;-73
2024/01/06 03:15:32;;;;;;;4.72;2.72;;;2.50;99.90;;;;;;5043998;28;20922;-73
2024/01/06 03:17:58;;;;;;;6.18;2.50;;;2.50;99.90;;;;;;5065625;28;20497;-73
2024/01/06 03:20:24;;;;;;;5.55;1.85;;;2.50;99.90;;;;;;5052659;28;20044;-73
2024/01/06 03:22:49;;;;;;;6.07;2.35;;;2.40;99.90;;;;;;5065611;28;20043;-73
2024/01/06 03:25:15;;;;;;;4.07;2.03;;;2.40;99.90;;;;;;5048840;28;20122;-73
2024/01/06 03:27:41;;;;;;;5.72;2.45;;;2.40;99.90;;;;;;5062830;28;20110;-73
2024/01/06 03:30:07;;;;;;;6.13;2.65;;;2.40;99.90;;;;;;5064665;28;20036;-73
2024/01/06 03:32:33;;;;;;;5.50;2.63;;;2.40;99.90;;;;;;5040564;28;20040;-73
2024/01/06 03:34:58;;;;;;;5.18;2.20;;;2.40;99.90;;;;;;5053576;28;20040;-73
2024/01/06 03:37:25;;;;;;;3.85;1.80;;;2.40;99.90;;;;;;5066611;28;20036;-73
2024/01/06 03:39:50;;;;;;;4.55;2.17;;;2.40;99.90;;;;;;5065727;28;20051;-73
2024/01/06 03:42:16;;;;;;;7.35;2.55;;;2.40;99.90;;;;;;5063850;28;20049;-73
2024/01/06 03:44:42;;;;;;;8.00;2.33;;;2.40;99.90;;;;;;5066533;28;20123;-73
2024/01/06 03:47:08;;;;;;;5.05;2.50;;;2.40;99.90;;;;;;5045560;28;20087;-73
2024/01/06 03:49:33;;;;;;;5.35;2.55;;;2.40;99.90;;;;;;5047498;28;20544;-73
2024/01/06 03:51:59;;;;;;;5.70;3.08;;;2.40;99.90;;;;;;5067074;28;20162;-73
2024/01/06 03:54:24;;;;;;;5.40;2.58;;;2.40;99.90;;;;;;5046811;28;20230;-73
2024/01/06 03:56:50;;;;;;;5.00;2.58;;;2.40;99.90;;;;;;5064136;28;20703;-73
2024/01/06 03:59:16;;;;;;;7.22;2.53;;;2.40;99.90;;;;;;5048779;28;20482;-73
2024/01/06 04:01:41;;;;;;;6.47;2.47;;;2.40;99.90;;;;;;5047805;28;20045;-73
2024/01/06 04:04:07;;;;;;;5.97;2.42;;;2.40;99.90;;;;;;5067977;28;20686;-73
2024/01/06 04:06:33;;;;;;;3.38;1.52;;;2.40;99.90;;;;;;5050061;28;20039;-73
2024/01/06 04:08:59;;;;;;;4.50;2.47;;;2.30;99.90;;;;;;5048329;28;20104;-73
2024/01/06 04:11:24;;;;;;;3.80;2.13;;;2.30;99.90;;;;;;5063486;28;20618;-73
2024/01/06 04:13:50;;;;;;;4.97;2.30;;;2.30;99.90;;;;;;5043582;28;20117;-73
2024/01/06 04:16:15;;;;;;;8.55;2.58;;;2.30;99.90;;;;;;5065308;28;20113;-73
2024/01/06 04:18:41;;;;;;;8.65;2.60;;;2.30;99.90;;;;;;5066722;28;20044;-73
2024/01/06 04:21:08;;;;;;;5.85;2.25;;;2.30;99.90;;;;;;5066273;28;20046;-73
2024/01/06 04:23:34;;;;;;;7.43;2.53;;;2.30;99.90;;;;;;5046172;28;20042;-73
2024/01/06 04:26:00;;;;;;;4.28;2.08;;;2.20;99.90;;;;;;5047025;28;20114;-73
2024/01/06 04:28:25;;;;;;;5.70;2.80;;;2.20;99.90;;;;;;5061284;28;20457;-73
2024/01/06 04:30:51;;;;;;;8.20;2.53;;;2.20;99.90;;;;;;5064779;28;20036;-73
2024/01/06 04:33:17;;;;;;;3.17;1.98;;;2.20;99.90;;;;;;5060484;28;20032;-73
2024/01/06 04:35:42;;;;;;;6.10;2.28;;;2.30;99.90;;;;;;5068679;28;20032;-73
2024/01/06 04:38:09;;;;;;;5.07;2.63;;;2.30;99.90;;;;;;5064917;28;20412;-73
2024/01/06 04:40:35;;;;;;;3.65;2.05;;;2.30;99.90;;;;;;5065465;28;20311;-73
2024/01/06 04:43:00;;;;;;;5.85;1.85;;;2.30;99.90;;;;;;5046600;28;20052;-73
2024/01/06 04:45:26;;;;;;;4.72;2.30;;;2.30;99.90;;;;;;5064163;28;20070;-73
2024/01/06 04:47:52;;;;;;;3.97;2.30;;;2.30;99.90;;;;;;5065721;28;20047;-73
2024/01/06 04:50:18;;;;;;;4.78;2.50;;;2.30;99.90;;;;;;5068528;28;20040;-73
2024/01/06 04:52:44;;;;;;;3.50;1.67;;;2.30;99.90;;;;;;5064261;28;20402;-73
2024/01/06 04:55:09;;;;;;;4.80;2.22;;;2.30;99.90;;;;;;5060600;28;20036;-73
2024/01/06 04:57:36;;;;;;;4.60;2.63;;;2.30;99.90;;;;;;5060280;28;20074;-73
2024/01/06 05:00:03;;;;;;;4.53;1.73;;;2.30;99.90;;;;;;5059388;28;20028;-73
2024/01/06 05:02:29;;;;;;;5.85;2.72;;;2.30;99.90;;;;;;5049047;28;20033;-73
2024/01/06 05:04:54;;;;;;;5.97;2.88;;;2.30;99.90;;;;;;5058870;28;20038;-73
2024/01/06 05:07:20;;;;;;;3.72;2.05;;;2.30;99.90;;;;;;5067004;28;20034;-73
2024/01/06 05:09:46;;;;;;;4.00;1.75;;;2.30;99.90;;;;;;5066584;28;20050;-73
2024/01/06 05:12:11;;;;;;;7.55;2.28;;;2.20;99.90;;;;;;5061181;28;22102;-73
2024/01/06 05:14:37;;;;;;;4.50;1.92;;;2.20;99.90;;;;;;5048649;28;20535;-73
2024/01/06 05:17:03;;;;;;;3.47;1.48;;;2.20;99.90;;;;;;5047514;28;20032;-73
2024/01/06 05:19:28;;;;;;;3.55;1.80;;;2.20;99.90;;;;;;5065641;28;20085;-73
2024/01/06 05:21:54;;;;;;;3.85;1.48;;;2.20;99.90;;;;;;5063283;28;20445;-73
2024/01/06 05:24:20;;;;;;;3.88;2.30;;;2.10;99.90;;;;;;5063863;28;20119;-73
2024/01/06 05:26:45;;;;;;;2.50;1.00;;;2.10;99.90;;;;;;5064468;28;20109;-73
2024/01/06 05:29:11;;;;;;;4.13;1.75;;;2.10;99.90;;;;;;5061767;28;20070;-73
2024/01/06 05:31:37;;;;;;;4.93;1.92;;;2.10;99.90;;;;;;5058153;28;20032;-73
2024/01/06 05:34:02;;;;;;;4.40;2.15;;;2.10;99.90;;;;;;5064354;28;20101;-73
2024/01/06 05:36:28;;;;;;;3.47;1.60;;;2.10;99.90;;;;;;5045837;28;20055;-73
2024/01/06 05:38:54;;;;;;;2.40;1.42;;;2.10;99.90;;;;;;5069995;28;20048;-73
2024/01/06 05:41:19;;;;;;;4.55;1.92;;;2.10;99.90;;;;;;5080358;28;20040;-73
2024/01/06 05:43:45;;;;;;;3.53;1.58;;;2.10;99.90;;;;;;5078337;28;20130;-73
2024/01/06 05:46:11;;;;;;;3.75;1.80;;;2.00;99.90;;;;;;5058479;28;20044;-73
2024/01/06 05:48:36;;;;;;;4.30;2.63;;;2.10;99.90;;;;;;5080342;28;20038;-73
2024/01/06 05:51:05;;;;;;;5.32;3.25;;;2.10;99.90;;;;;;5082974;28;20058;-73
2024/01/06 05:53:31;;;;;;;3.30;1.27;;;2.00;99.90;;;;;;5077323;28;20043;-73
2024/01/06 05:55:57;;;;;;;2.88;1.65;;;2.00;99.90;;;;;;5066749;28;20041;-73
2024/01/06 05:58:22;;;;;;;4.38;2.03;;;2.00;99.90;;;;;;5063626;28;20417;-73
2024/01/06 06:00:48;;;;;;;5.47;1.75;;;2.00;99.90;;;;;;5049773;28;20409;-73
2024/01/06 06:03:14;;;;;;;3.15;1.90;;;2.00;99.90;;;;;;5068076;28;20047;-73
2024/01/06 06:05:40;;;;;;;4.55;2.00;;;2.00;99.90;;;;;;5068221;28;20047;-73
2024/01/06 06:08:05;;;;;;;4.05;1.83;;;1.90;99.90;;;;;;5069429;28;20043;-73
2024/01/06 06:10:40;;;;;;;4.40;2.30;;;1.90;99.90;;;;;;5049133;28;20562;-73
2024/01/06 06:13:10;;;;;;;5.20;1.95;;;1.90;99.90;;;;;;5050460;28;20032;-73
2024/01/06 06:15:36;;;;;;;4.45;2.33;;;1.90;99.90;;;;;;5048103;28;20064;-73
2024/01/06 06:18:01;;;;;;;5.88;2.30;;;1.90;99.90;;;;;;5060642;28;20071;-73
2024/01/06 06:20:27;;;;;;;4.63;2.30;;;1.90;99.90;;;;;;5069817;28;20123;-73
2024/01/06 06:22:53;;;;;;;5.65;2.50;;;1.90;99.90;;;;;;5063294;28;20044;-73
2024/01/06 06:25:18;;;;;;;4.78;1.98;;;1.90;99.90;;;;;;5067689;28;20036;-73
2024/01/06 06:27:44;;;;;;;4.55;2.10;;;1.90;99.90;;;;;;5049330;28;20036;-73
2024/01/06 06:30:10;;;;;;;4.32;2.33;;;1.90;99.90;;;;;;5065160;28;20055;-73
2024/01/06 06:32:36;;;;;;;3.42;1.70;;;1.90;99.90;;;;;;5050149;28;20040;-73
2024/01/06 06:35:01;;;;;;;4.93;2.25;;;1.90;99.90;;;;;;5068149;28;20038;-73
2024/01/06 06:37:27;;;;;;;2.33;1.33;;;1.90;99.90;;;;;;5061417;28;20028;-73
2024/01/06 06:39:52;;;;;;;4.25;2.10;;;1.90;99.90;;;;;;5053991;28;20493;-73
2024/01/06 06:42:18;;;;;;;5.55;2.55;;;1.90;99.90;;;;;;5052387;28;20048;-73
2024/01/06 06:44:44;;;;;;;4.55;3.03;;;2.00;99.90;;;;;;5072149;28;20039;-73
2024/01/06 06:47:09;;;;;;;6.47;2.25;;;2.00;99.90;;;;;;5071968;28;20048;-73
2024/01/06 06:49:35;;;;;;;3.25;1.33;;;2.00;99.90;;;;;;5071822;28;20066;-73
2024/01/06 06:52:02;;;;;;;5.85;1.83;;;2.00;99.90;;;;;;5068200;28;20413;-73
2024/01/06 06:54:28;;;;;;;3.13;2.08;;;2.00;99.90;;;;;;5064915;28;20666;-73
2024/01/06 06:56:54;;;;;;;5.35;2.30;;;2.00;99.90;;;;;;5052678;28;20489;-73
2024/01/06 06:59:20;;;;;;;3.58;1.58;;;2.00;99.90;;;;;;5084781;28;20048;-73
2024/01/06 07:01:45;;;;;;;6.63;2.20;;;2.00;99.90;;;;;;5067631;28;20497;-73
2024/01/06 07:04:11;;;;;;;7.20;2.53;;;2.00;99.90;;;;;;5051695;28;20047;-73
2024/01/06 07:06:37;;;;;;;4.00;1.83;;;2.00;99.90;;;;;;5070311;28;20657;-73
2024/01/06 07:09:04;;;;;;;5.72;1.98;;;2.00;99.90;;;;;;5051366;28;20731;-73
2024/01/06 07:11:30;;;;;;;3.65;1.55;;;2.00;99.90;;;;;;5053197;28;20032;-73
2024/01/06 07:13:56;;;;;;;3.08;2.00;;;2.00;99.90;;;;;;5066849;28;20500;-73
2024/01/06 07:16:21;;;;;;;4.72;2.03;;;2.00;99.90;;;;;;5065559;28;20035;-73
2024/01/06 07:18:47;;;;;;;3.95;1.77;;;2.00;99.90;;;;;;5052290;28;20524;-73
2024/01/06 07:21:13;;;;;;;3.13;1.60;;;2.00;99.90;;;;;;5054581;28;20489;-73
2024/01/06 07:23:39;;;;;;;4.07;1.90;;;2.00;99.90;;;;;;5066770;28;20043;-73
2024/01/06 07:26:05;;;;;;;7.57;2.20;;;2.00;99.90;;;;;;5066658;28;20043;-73
2024/01/06 07:28:30;;;;;;;3.67;1.40;;;2.00;99.90;;;;;;5068242;28;20450;-73
2024/01/06 07:30:56;;;;;;;4.13;1.70;;;2.10;99.90;;;;;;5064105;28;20055;-73
2024/01/06 07:33:22;;;;;;;3.95;2.20;;;2.00;99.90;;;;;;5052217;28;20503;-73
2024/01/06 07:35:47;;;;;;;5.07;2.17;;;2.00;99.90;;;;;;5053199;28;20031;-73
2024/01/06 07:38:13;;;;;;;4.70;1.95;;;2.00;99.90;;;;;;5052856;28;20523;-73
2024/01/06 07:40:40;;;;;;;3.50;1.52;;;2.00;99.90;;;;;;5051395;28;20032;-73
2024/01/06 07:43:06;;;;;;;6.25;2.40;;;2.00;99.90;;;;;;5066803;28;20040;-73
2024/01/06 07:45:32;;;;;;;3.25;1.38;;;2.00;99.90;;;;;;5065282;28;20040;-73
2024/01/06 07:48:01;;;;;;;2.83;1.88;;;2.00;99.90;;;;;;5066765;28;20047;-73
2024/01/06 07:50:27;;;;;;;3.83;1.70;;;2.00;99.90;;;;;;5067246;28;20050;-73
2024/01/06 07:52:54;;;;;;;6.05;2.55;;;2.00;99.90;;;;;;5068229;28;20493;-73
2024/01/06 07:55:19;;;;;;;4.57;2.42;;;1.90;99.90;;;;;;5068266;28;20116;-73
2024/01/06 07:57:45;;;;;;;3.85;1.90;;;1.90;99.90;;;;;;5050686;28;20405;-73
2024/01/06 08:00:14;;;;;;;4.97;2.08;;;1.90;99.90;;;;;;5068599;28;20031;-73
2024/01/06 08:02:40;;;;;;;3.38;1.80;;;1.90;99.90;;;;;;5063620;28;20089;-73
2024/01/06 08:05:07;;;;;;;3.35;1.70;;;1.90;99.90;;;;;;5069356;28;20401;-73
2024/01/06 08:07:32;;;;;;;2.55;1.40;;;1.90;99.90;;;;;;5067686;28;20032;-73
2024/01/06 08:09:58;;;;;;;3.42;1.63;;;1.90;99.90;;;;;;5065472;28;20499;-73
2024/01/06 08:12:24;;;;;;;7.03;2.30;;;1.90;99.90;;;;;;5070384;28;20506;-73
2024/01/06 08:14:49;;;;;;;1.52;1.00;;;1.90;99.90;;;;;;5070318;28;20056;-73
2024/01/06 08:17:15;;;;;;;3.63;1.63;;;2.00;99.90;;;;;;5049329;28;20507;-73
2024/01/06 08:19:41;;;;;;;4.07;1.88;;;2.00;99.90;;;;;;5072521;28;20100;-73
2024/01/06 08:22:07;;;;;;;5.63;2.03;;;2.00;99.90;;;;;;5065262;28;20379;-73
2024/01/06 08:24:33;;;;;;;2.78;1.58;;;2.00;99.90;;;;;;5065774;28;20055;-73
2024/01/06 08:26:59;;;;;;;7.68;1.95;;;1.90;99.90;;;;;;5067234;28;20044;-73
2024/01/06 08:29:25;;;;;;;3.22;1.63;;;1.90;99.90;;;;;;5066561;28;20651;-73
2024/01/06 08:31:52;;;;;;;2.92;1.75;;;2.00;99.90;;;;;;5063794;28;20532;-73
2024/01/06 08:34:18;;;;;;;2.58;1.88;;;1.90;99.90;;;;;;5048940;28;20153;-73
2024/01/06 08:36:44;;;;;;;4.30;1.73;;;1.90;99.90;;;;;;5048956;28;20046;-73
2024/01/06 08:39:11;;;;;;;3.67;1.45;;;1.90;99.90;;;;;;5063121;28;20032;-73
2024/01/06 08:41:37;;;;;;;3.03;1.92;;;2.00;99.90;;;;;;5063556;28;20044;-73
2024/01/06 08:44:02;;;;;;;4.43;2.05;;;2.00;99.90;;;;;;5045842;28;20039;-73
2024/01/06 08:46:28;;;;;;;5.43;2.22;;;2.00;99.90;;;;;;5073169;28;20529;-73
2024/01/06 08:48:54;;;;;;;5.85;1.90;;;2.00;99.90;;;;;;5044999;28;20036;-73
2024/01/06 08:51:20;;;;;;;1.90;1.73;;;1.90;99.90;;;;;;5049155;28;20034;-73
2024/01/06 08:53:46;;;;;;;5.07;1.90;;;2.00;99.90;;;;;;5045788;28;20064;-73
2024/01/06 08:56:12;;;;;;;3.00;1.77;;;2.00;99.90;;;;;;5065892;28;20077;-73
2024/01/06 08:58:37;;;;;;;5.30;1.70;;;2.00;99.90;;;;;;5061858;28;20512;-73
2024/01/06 09:01:03;;;;;;;2.80;1.50;;;2.00;99.90;;;;;;5065806;28;20503;-73
2024/01/06 09:03:29;;;;;;;6.00;1.38;;;2.00;99.90;;;;;;5060946;28;20485;-73
2024/01/06 09:05:58;;;;;;;2.58;1.70;;;2.00;99.90;;;;;;5059090;28;20080;-73
2024/01/06 09:08:24;;;;;;;3.45;1.83;;;2.00;99.90;;;;;;5082640;28;20051;-73
2024/01/06 09:10:51;;;;;;;3.25;1.60;;;2.00;99.90;;;;;;5046752;28;20032;-73
2024/01/06 09:13:18;;;;;;;3.05;1.33;;;2.10;99.90;;;;;;5068251;28;20210;-73
2024/01/06 09:15:43;;;;;;;3.58;1.90;;;2.10;99.90;;;;;;5053298;28;20332;-76
2024/01/06 09:18:09;;;;;;;3.85;1.38;;;2.10;99.90;;;;;;5046082;28;20493;-76
2024/01/06 09:20:35;;;;;;;3.70;1.80;;;2.00;99.90;;;;;;5063838;28;20074;-73
2024/01/06 09:23:01;;;;;;;7.03;2.35;;;2.00;99.90;;;;;;5067420;28;20042;-73
2024/01/06 09:25:26;;;;;;;6.32;1.40;;;2.00;99.90;;;;;;5065678;28;20155;-73
2024/01/06 09:27:53;;;;;;;3.20;2.03;;;2.00;99.90;;;;;;5064517;28;20046;-73
2024/01/06 09:30:18;;;;;;;3.13;1.90;;;2.00;99.90;;;;;;5049695;28;20036;-72
2024/01/06 09:32:44;;;;;;;4.82;2.33;;;2.00;99.90;;;;;;5059664;28;20048;-73
2024/01/06 09:35:10;;;;;;;3.90;1.55;;;2.00;99.90;;;;;;5066230;28;20131;-72
2024/01/06 09:37:35;;;;;;;3.92;1.88;;;2.00;99.90;;;;;;5072365;28;20036;-73
2024/01/06 09:40:01;;;;;;;6.00;1.63;;;2.00;99.90;;;;;;5073502;28;20057;-73
2024/01/06 09:42:27;;;;;;;5.28;2.00;;;2.00;99.90;;;;;;5055930;28;20386;-73
2024/01/06 09:44:52;;;;;;;4.30;1.65;;;2.00;99.90;;;;;;5057292;28;20036;-73
2024/01/06 09:47:18;;;;;;;3.80;2.42;;;2.00;99.90;;;;;;5056719;28;20094;-73
2024/01/06 09:49:49;;;;;;;2.67;1.20;;;2.00;99.90;;;;;;5056225;28;20089;-73
2024/01/06 09:52:18;;;;;;;6.05;2.65;;;2.00;99.90;;;;;;5073133;28;20494;-73
2024/01/06 09:54:52;;;;;;;3.45;2.05;;;1.90;99.90;;;;;;5068267;28;20032;-73
2024/01/06 09:57:18;;;;;;;1.90;1.02;;;1.90;99.90;;;;;;5061526;28;20600;-73
2024/01/06 09:59:44;;;;;;;4.03;2.00;;;1.90;99.90;;;;;;5056589;28;20043;-73
2024/01/06 10:02:16;;;;;;;2.85;1.42;;;2.00;99.90;;;;;;5072590;28;20044;-73
2024/01/06 10:04:43;;;;;;;5.68;1.80;;;1.90;99.90;;;;;;5057212;28;20120;-73
2024/01/06 10:07:13;;;;;;;6.38;2.22;;;1.90;99.90;;;;;;5073390;28;20036;-72
2024/01/06 10:09:40;;;;;;;3.20;1.45;;;2.00;99.90;;;;;;5073655;28;20573;-73
2024/01/06 10:12:06;;;;;;;3.72;2.13;;;2.00;99.90;;;;;;5074709;28;20054;-73
2024/01/06 10:14:32;;;;;;;4.82;2.42;;;2.00;99.90;;;;;;5067262;28;20032;-73
2024/01/06 10:16:57;;;;;;;3.58;2.10;;;2.00;99.90;;;;;;5050101;28;20043;-75
2024/01/06 10:19:23;;;;;;;4.10;1.95;;;2.00;99.90;;;;;;5065118;28;20397;-72
2024/01/06 10:21:49;;;;;;;4.00;2.13;;;2.00;99.90;;;;;;5065023;28;20127;-72
2024/01/06 10:24:18;;;;;;;3.78;1.80;;;2.00;99.90;;;;;;5068346;28;20127;-72
2024/01/06 10:26:45;;;;;;;7.95;2.05;;;2.00;99.90;;;;;;5066158;28;20059;-72
2024/01/06 10:29:11;;;;;;;2.78;1.63;;;2.00;99.90;;;;;;5061288;28;20044;-72
2024/01/06 10:31:37;;;;;;;5.55;2.25;;;2.00;99.90;;;;;;5066063;28;20040;-73
2024/01/06 10:34:04;;;;;;;5.63;2.17;;;2.00;99.90;;;;;;5066067;28;20032;-72
2024/01/06 10:36:31;;;;;;;7.25;2.63;;;2.10;99.90;;;;;;5058686;28;20036;-72
2024/01/06 10:38:57;;;;;;;5.82;1.90;;;2.10;99.90;;;;;;5066130;28;20047;-73
2024/01/06 10:41:23;;;;;;;4.95;2.08;;;2.10;99.90;;;;;;5062771;28;20432;-72
2024/01/06 10:43:51;;;;;;;4.50;2.20;;;2.00;99.90;;;;;;5063626;28;20035;-72
2024/01/06 10:46:19;;;;;;;4.78;2.00;;;2.00;99.90;;;;;;5070401;28;20448;-72
2024/01/06 10:48:46;;;;;;;5.07;2.15;;;2.00;99.90;;;;;;5062199;28;20040;-72
2024/01/06 10:51:13;;;;;;;5.90;2.63;;;2.10;99.90;;;;;;5046665;28;20327;-73
2024/01/06 10:53:40;;;;;;;2.10;1.40;;;2.10;99.90;;;;;;5062668;28;20562;-72
2024/01/06 10:56:10;;;;;;;5.25;2.33;;;2.10;99.90;;;;;;5048322;28;20040;-72
2024/01/06 10:58:42;;;;;;;3.67;1.98;;;2.10;99.90;;;;;;5054764;28;20044;-73
2024/01/06 11:01:09;;;;;;;4.47;1.52;;;2.10;99.90;;;;;;5047581;28;20515;-72
2024/01/06 11:03:38;;;;;;;4.05;1.98;;;2.10;99.90;;;;;;5068673;28;20046;-73
2024/01/06 11:06:06;;;;;;;3.60;1.95;;;2.00;99.90;;;;;;5064563;28;20521;-72
2024/01/06 11:08:36;;;;;;;4.78;2.15;;;2.00;99.90;;;;;;5052903;28;20043;-72
2024/01/06 11:11:02;;;;;;;4.20;2.28;;;2.00;99.90;;;;;;5045407;28;20144;-72
2024/01/06 11:13:28;;;;;;;6.78;2.65;;;2.00;99.90;;;;;;5060172;28;20090;-72
2024/01/06 11:15:54;;;;;;;3.88;1.65;;;2.10;99.90;;;;;;5064146;28;20044;-73
2024/01/06 11:18:38;;;;;;;4.90;2.47;;;2.00;99.90;;;;;;5059515;28;20046;-73
2024/01/06 11:21:24;;;;;;;3.55;2.00;;;2.00;99.90;;;;;;5068131;28;20508;-73
2024/01/06 11:24:24;;;;;;;3.63;2.15;;;2.00;99.90;;;;;;5049320;28;20032;-73
2024/01/06 11:26:51;;;;;;;4.70;2.00;;;2.00;99.90;;;;;;5063182;28;20036;-73
2024/01/06 11:29:19;;;;;;;3.33;2.03;;;2.00;99.90;;;;;;5062701;28;20065;-73
2024/01/06 11:32:20;;;;;;;6.53;3.08;;;2.00;99.90;;;;;;5049202;28;20051;-73
2024/01/06 11:34:52;;;;;;;4.03;2.50;;;2.00;99.90;;;;;;5082898;28;20048;-73
2024/01/06 11:37:39;;;;;;;5.28;2.35;;;2.00;99.90;;;;;;5059868;28;20576;-73
2024/01/06 11:40:30;;;;;;;4.13;2.40;;;2.00;99.90;;;;;;5038708;28;20044;-73
2024/01/06 11:43:10;;;;;;;5.40;2.28;;;2.00;99.90;;;;;;5064485;28;20519;-73
2024/01/06 11:45:37;;;;;;;7.50;1.70;;;2.00;99.90;;;;;;5065389;28;20063;-72
2024/01/06 11:48:08;;;;;;;4.25;2.42;;;2.00;99.90;;;;;;5046982;28;20196;-73
2024/01/06 11:50:38;;;;;;;3.97;2.22;;;2.00;99.90;;;;;;5061732;28;20044;-73
2024/01/06 11:53:05;;;;;;;4.82;2.17;;;2.00;99.90;;;;;;5059990;28;20474;-73
2024/01/06 11:55:34;;;;;;;3.13;1.67;;;2.00;99.90;;;;;;5047354;28;20036;-74
2024/01/06 11:58:05;;;;;;;3.92;2.03;;;2.00;99.90;;;;;;5060546;28;20187;-73
2024/01/06 12:00:39;;;;;;;3.25;1.63;;;2.00;99.90;;;;;;5060753;28;20040;-73
2024/01/06 12:03:05;;;;;;;4.95;2.33;;;2.00;99.90;;;;;;5058473;28;20381;-73
2024/01/06 12:05:30;;;;;;;5.63;2.30;;;2.00;99.90;;;;;;5057786;28;20036;-73
2024/01/06 12:07:58;;;;;;;4.93;2.20;;;2.00;99.90;;;;;;5069768;28;20038;-73
2024/01/06 12:10:25;;;;;;;4.25;1.92;;;2.00;99.90;;;;;;5053952;28;20124;-73
2024/01/06 12:13:00;;;;;;;4.80;2.80;;;2.00;99.90;;;;;;5070327;28;20031;-73
2024/01/06 12:15:27;;;;;;;;;;;2.00;99.90;;;;;;5063483;28;20032;-73
2024/01/06 12:17:52;;;;;;;5.03;2.80;;;2.00;99.90;;;;;;5073528;28;19900;-73
2024/01/06 12:20:18;;;;;;;5.22;2.38;;;2.00;99.90;;;;;;5065129;28;20097;-73
2024/01/06 12:22:44;;;;;;;5.13;2.00;;;2.00;99.90;;;;;;5071094;28;20044;-73
2024/01/06 12:25:10;;;;;;;5.50;2.83;;;2.00;99.90;;;;;;5071257;28;20071;-73
2024/01/06 12:27:40;;;;;;;3.92;2.33;;;1.90;99.90;;;;;;5084340;28;20075;-73
2024/01/06 12:30:15;;;;;;;3.90;1.45;;;2.00;99.90;;;;;;5083368;28;20032;-73
2024/01/06 12:32:42;;;;;;;6.45;2.50;;;2.00;99.90;;;;;;5070389;28;20071;-73
2024/01/06 12:35:09;;;;;;;6.75;3.13;;;2.00;99.90;;;;;;5054302;28;20124;-73
2024/01/06 12:37:35;;;;;;;5.80;2.42;;;2.00;99.90;;;;;;5070937;28;20043;-73
2024/01/06 12:40:01;;;;;;;6.50;2.25;;;2.00;99.90;;;;;;5070530;28;20071;-73
2024/01/06 12:42:27;;;;;;;5.50;2.25;;;2.00;99.90;;;;;;5053606;28;20076;-73
2024/01/06 12:44:52;;;;;;;6.75;2.53;;;1.90;99.90;;;;;;5070535;28;20068;-73
2024/01/06 12:47:18;;;;;;;6.00;3.25;;;1.90;99.90;;;;;;5055672;28;20036;-73
2024/01/06 12:49:44;;;;;;;5.45;2.58;;;1.90;99.90;;;;;;5074229;28;20036;-73
2024/01/06 12:54:57;;;;;;;4.35;2.33;;;1.90;99.90;;;;;;5070882;28;20045;-89
2024/01/06 12:57:23;;;;;;;4.65;1.92;;;2.00;99.90;;;;;;5037836;28;20334;-89